createdAt,value
2019-02-05T00:00:45.464Z,22.34
2019-02-05T00:02:38.449Z,22.47
2019-02-05T00:03:38.433Z,22.40
2019-02-05T00:05:31.378Z,22.23
2019-02-05T00:06:31.403Z,22.31
2019-02-05T00:08:24.359Z,22.26
2019-02-05T00:09:24.384Z,22.30
2019-02-05T00:11:17.336Z,22.36
2019-02-05T00:12:17.353Z,22.25
2019-02-05T00:14:10.303Z,22.37
2019-02-05T00:15:10.334Z,22.28
2019-02-05T00:17:03.285Z,22.30
2019-02-05T00:18:03.309Z,22.25
2019-02-05T00:19:56.251Z,22.43
2019-02-05T00:20:56.280Z,22.30
2019-02-05T00:22:49.229Z,22.34
2019-02-05T00:23:49.250Z,22.22
2019-02-05T00:25:42.200Z,22.28
2019-02-05T00:26:42.226Z,22.28
2019-02-05T00:28:35.176Z,22.26
2019-02-05T00:29:35.198Z,22.31
2019-02-05T00:31:28.161Z,22.26
2019-02-05T00:32:28.178Z,22.36
2019-02-05T00:34:21.123Z,22.40
2019-02-05T00:35:21.148Z,22.25
2019-02-05T00:37:14.104Z,22.30
2019-02-05T00:38:14.124Z,22.31
2019-02-05T00:40:07.065Z,22.22
2019-02-05T00:41:07.095Z,22.23
2019-02-05T00:43:00.049Z,22.33
2019-02-05T00:44:00.072Z,22.26
2019-02-05T00:45:53.012Z,22.26
2019-02-05T00:46:53.040Z,22.26
2019-02-05T00:48:45.998Z,22.28
2019-02-05T00:49:46.011Z,22.18
2019-02-05T00:51:38.963Z,22.28
2019-02-05T00:52:38.986Z,22.21
2019-02-05T00:54:31.931Z,22.15
2019-02-05T00:55:31.958Z,22.28
2019-02-05T00:57:24.913Z,22.21
2019-02-05T00:58:24.932Z,22.19
2019-02-05T01:00:17.874Z,22.22
2019-02-05T01:01:17.900Z,22.19
2019-02-05T01:03:10.857Z,22.18
2019-02-05T01:04:10.875Z,22.16
2019-02-05T01:06:03.818Z,22.19
2019-02-05T01:07:03.848Z,22.14
2019-02-05T01:08:56.807Z,22.16
2019-02-05T01:09:56.821Z,22.22
2019-02-05T01:11:49.797Z,22.10
2019-02-05T01:12:49.790Z,22.19
2019-02-05T01:14:42.733Z,22.12
2019-02-05T01:15:42.762Z,22.04
2019-02-05T01:17:35.710Z,22.10
2019-02-05T01:18:35.734Z,22.16
2019-02-05T01:20:28.674Z,22.07
2019-02-05T01:21:28.705Z,22.07
2019-02-05T01:23:21.658Z,22.15
2019-02-05T01:24:21.685Z,22.14
2019-02-05T01:26:14.624Z,22.00
2019-02-05T01:27:14.651Z,22.06
2019-02-05T01:29:07.607Z,22.07
2019-02-05T01:30:07.624Z,21.99
2019-02-05T01:32:00.576Z,21.99
2019-02-05T01:33:00.592Z,22.01
2019-02-05T01:34:53.535Z,22.01
2019-02-05T01:35:53.566Z,22.00
2019-02-05T01:37:46.521Z,21.92
2019-02-05T01:38:46.542Z,22.04
2019-02-05T01:40:39.479Z,21.94
2019-02-05T01:41:39.513Z,21.99
2019-02-05T01:43:32.459Z,21.97
2019-02-05T01:44:32.482Z,21.92
2019-02-05T01:46:25.424Z,21.92
2019-02-05T01:47:25.451Z,21.91
2019-02-05T01:49:18.407Z,21.92
2019-02-05T01:50:18.423Z,21.96
2019-02-05T01:52:11.378Z,21.96
2019-02-05T01:53:11.399Z,21.84
2019-02-05T01:55:04.350Z,21.97
2019-02-05T01:56:04.369Z,21.94
2019-02-05T01:57:57.387Z,21.96
2019-02-05T01:58:57.403Z,21.92
2019-02-05T02:00:50.388Z,21.99
2019-02-05T02:01:50.374Z,21.96
2019-02-05T02:03:43.339Z,21.94
2019-02-05T02:04:43.357Z,21.89
2019-02-05T02:06:36.301Z,21.94
2019-02-05T02:07:36.331Z,21.96
2019-02-05T02:09:29.282Z,21.91
2019-02-05T02:10:29.301Z,21.92
2019-02-05T02:12:22.239Z,21.78
2019-02-05T02:13:22.269Z,21.85
2019-02-05T02:15:15.219Z,21.88
2019-02-05T02:16:15.245Z,21.78
2019-02-05T02:18:08.194Z,21.88
2019-02-05T02:19:08.210Z,21.94
2019-02-05T02:21:01.152Z,21.89
2019-02-05T02:22:01.179Z,21.89
2019-02-05T02:23:54.135Z,21.85
2019-02-05T02:24:54.153Z,21.88
2019-02-05T02:26:51.934Z,21.88
2019-02-05T02:27:47.120Z,21.91
2019-02-05T02:29:40.072Z,21.89
2019-02-05T02:30:40.098Z,21.88
2019-02-05T02:32:33.545Z,21.84
2019-02-05T02:33:33.557Z,21.85
2019-02-05T02:35:26.511Z,21.89
2019-02-05T02:36:26.526Z,21.81
2019-02-05T02:38:19.483Z,21.83
2019-02-05T02:39:19.503Z,21.85
2019-02-05T02:41:12.443Z,21.88
2019-02-05T02:42:12.473Z,21.75
2019-02-05T02:44:05.428Z,21.78
2019-02-05T02:45:05.443Z,21.77
2019-02-05T02:46:58.385Z,21.77
2019-02-05T02:47:58.523Z,21.74
2019-02-05T02:49:51.368Z,21.78
2019-02-05T02:50:51.384Z,21.70
2019-02-05T02:52:44.326Z,21.77
2019-02-05T02:53:44.358Z,21.72
2019-02-05T02:55:37.310Z,21.77
2019-02-05T02:56:37.330Z,21.74
2019-02-05T02:58:30.283Z,21.70
2019-02-05T02:59:30.298Z,21.70
2019-02-05T03:01:23.251Z,21.74
2019-02-05T03:02:23.278Z,21.66
2019-02-05T03:04:16.229Z,21.72
2019-02-05T03:05:16.245Z,21.62
2019-02-05T03:07:09.193Z,21.70
2019-02-05T03:08:09.214Z,21.56
2019-02-05T03:10:02.167Z,21.68
2019-02-05T03:11:02.187Z,21.62
2019-02-05T03:12:55.130Z,21.63
2019-02-05T03:13:55.159Z,21.66
2019-02-05T03:15:48.108Z,21.68
2019-02-05T03:16:48.131Z,21.60
2019-02-05T03:18:41.084Z,21.63
2019-02-05T03:19:41.101Z,21.65
2019-02-05T03:21:34.058Z,21.63
2019-02-05T03:22:34.077Z,21.62
2019-02-05T03:24:27.028Z,21.65
2019-02-05T03:25:27.057Z,21.58
2019-02-05T03:27:19.990Z,21.60
2019-02-05T03:28:20.017Z,21.62
2019-02-05T03:30:12.966Z,21.62
2019-02-05T03:31:13.020Z,21.65
2019-02-05T03:33:05.932Z,21.62
2019-02-05T03:34:05.958Z,21.60
2019-02-05T03:35:58.911Z,21.59
2019-02-05T03:36:58.929Z,21.58
2019-02-05T03:38:51.890Z,21.60
2019-02-05T03:39:51.911Z,21.68
2019-02-05T03:41:44.846Z,21.60
2019-02-05T03:42:44.870Z,21.53
2019-02-05T03:44:37.828Z,21.63
2019-02-05T03:45:37.860Z,21.62
2019-02-05T03:47:30.787Z,21.60
2019-02-05T03:48:30.819Z,21.62
2019-02-05T03:50:23.767Z,21.56
2019-02-05T03:51:23.784Z,21.58
2019-02-05T03:53:16.732Z,21.48
2019-02-05T03:54:16.758Z,21.53
2019-02-05T03:56:09.713Z,21.58
2019-02-05T03:57:09.728Z,21.53
2019-02-05T03:59:02.677Z,21.47
2019-02-05T04:00:02.696Z,21.53
2019-02-05T04:01:55.643Z,21.58
2019-02-05T04:02:55.673Z,21.58
2019-02-05T04:04:48.616Z,21.51
2019-02-05T04:05:48.637Z,21.51
2019-02-05T04:07:41.579Z,21.48
2019-02-05T04:08:41.608Z,21.50
2019-02-05T04:10:34.557Z,21.51
2019-02-05T04:11:34.580Z,21.47
2019-02-05T04:13:27.521Z,21.54
2019-02-05T04:14:27.552Z,21.56
2019-02-05T04:16:20.497Z,21.50
2019-02-05T04:17:20.528Z,21.51
2019-02-05T04:19:13.468Z,21.51
2019-02-05T04:20:13.489Z,21.51
2019-02-05T04:22:06.432Z,21.44
2019-02-05T04:23:06.458Z,21.51
2019-02-05T04:24:59.408Z,21.51
2019-02-05T04:25:59.428Z,21.54
2019-02-05T04:27:52.373Z,21.50
2019-02-05T04:28:52.398Z,21.45
2019-02-05T04:30:45.353Z,21.51
2019-02-05T04:31:45.367Z,21.47
2019-02-05T04:33:38.309Z,21.54
2019-02-05T04:34:38.339Z,21.48
2019-02-05T04:36:31.292Z,21.45
2019-02-05T04:37:31.312Z,21.45
2019-02-05T04:39:24.259Z,21.56
2019-02-05T04:40:24.283Z,21.51
2019-02-05T04:42:17.228Z,21.50
2019-02-05T04:43:17.255Z,21.50
2019-02-05T04:45:10.203Z,21.47
2019-02-05T04:46:10.228Z,21.45
2019-02-05T04:48:03.164Z,21.51
2019-02-05T04:49:03.192Z,21.47
2019-02-05T04:50:56.143Z,21.41
2019-02-05T04:51:56.168Z,21.47
2019-02-05T04:53:49.106Z,21.50
2019-02-05T04:54:49.136Z,21.48
2019-02-05T04:56:42.092Z,21.37
2019-02-05T04:57:42.108Z,21.38
2019-02-05T04:59:35.079Z,21.48
2019-02-05T05:00:35.076Z,21.41
2019-02-05T05:02:28.021Z,21.41
2019-02-05T05:03:28.046Z,21.53
2019-02-05T05:05:20.994Z,21.45
2019-02-05T05:06:21.013Z,21.33
2019-02-05T05:08:13.962Z,21.37
2019-02-05T05:09:13.986Z,21.40
2019-02-05T05:11:06.933Z,21.32
2019-02-05T05:12:06.957Z,21.35
2019-02-05T05:13:59.896Z,21.28
2019-02-05T05:14:59.947Z,21.33
2019-02-05T05:16:52.878Z,21.32
2019-02-05T05:17:52.899Z,21.33
2019-02-05T05:19:45.841Z,21.29
2019-02-05T05:20:45.865Z,21.30
2019-02-05T05:22:38.820Z,21.25
2019-02-05T05:23:38.841Z,21.29
2019-02-05T05:25:31.794Z,21.32
2019-02-05T05:26:31.809Z,21.29
2019-02-05T05:28:24.752Z,21.25
2019-02-05T05:29:24.778Z,21.26
2019-02-05T05:31:17.735Z,21.33
2019-02-05T05:32:17.753Z,21.26
2019-02-05T05:34:10.691Z,21.29
2019-02-05T05:35:10.721Z,21.37
2019-02-05T05:37:03.681Z,21.33
2019-02-05T05:38:03.688Z,21.30
2019-02-05T05:39:56.630Z,21.35
2019-02-05T05:40:56.657Z,21.30
2019-02-05T05:42:49.612Z,21.32
2019-02-05T05:43:49.633Z,21.33
2019-02-05T05:45:42.586Z,21.33
2019-02-05T05:46:42.607Z,21.30
2019-02-05T05:48:35.546Z,21.40
2019-02-05T05:49:35.574Z,21.33
2019-02-05T05:51:28.546Z,21.37
2019-02-05T05:52:28.543Z,21.38
2019-02-05T05:54:21.484Z,21.40
2019-02-05T05:55:21.515Z,21.33
2019-02-05T05:57:14.467Z,21.33
2019-02-05T05:58:22.410Z,21.33
2019-02-05T06:00:07.431Z,21.37
2019-02-05T06:01:07.460Z,21.40
2019-02-05T06:03:00.412Z,21.37
2019-02-05T06:04:00.429Z,21.35
2019-02-05T06:05:53.398Z,21.41
2019-02-05T06:06:53.400Z,21.37
2019-02-05T06:08:46.341Z,21.43
2019-02-05T06:09:46.368Z,21.43
2019-02-05T06:11:39.856Z,21.38
2019-02-05T06:12:39.871Z,21.40
2019-02-05T06:14:33.410Z,21.44
2019-02-05T06:15:35.835Z,21.35
2019-02-05T06:17:26.348Z,21.38
2019-02-05T06:18:26.365Z,21.40
2019-02-05T06:20:19.311Z,21.43
2019-02-05T06:21:19.342Z,21.40
2019-02-05T06:23:12.308Z,21.47
2019-02-05T06:24:12.316Z,21.54
2019-02-05T06:26:05.318Z,21.59
2019-02-05T06:27:05.290Z,21.56
2019-02-05T06:28:58.220Z,21.60
2019-02-05T06:29:58.247Z,21.62
2019-02-05T06:31:51.199Z,21.62
2019-02-05T06:32:51.217Z,21.68
2019-02-05T06:34:44.165Z,21.68
2019-02-05T06:35:44.187Z,21.78
2019-02-05T06:37:37.134Z,21.69
2019-02-05T06:38:37.157Z,21.77
2019-02-05T06:40:30.115Z,21.77
2019-02-05T06:41:30.251Z,21.72
2019-02-05T06:43:23.076Z,21.75
2019-02-05T06:44:23.096Z,21.74
2019-02-05T06:46:16.051Z,21.77
2019-02-05T06:47:16.070Z,21.77
2019-02-05T06:49:09.013Z,21.89
2019-02-05T06:50:09.039Z,21.92
2019-02-05T06:52:01.995Z,21.99
2019-02-05T06:53:02.014Z,21.96
2019-02-05T06:54:54.956Z,21.94
2019-02-05T06:55:54.986Z,22.07
2019-02-05T06:57:47.939Z,22.04
2019-02-05T06:58:47.955Z,22.10
2019-02-05T07:00:40.904Z,22.19
2019-02-05T07:01:40.931Z,22.21
2019-02-05T07:03:34.432Z,22.28
2019-02-05T07:04:34.427Z,22.16
2019-02-05T07:06:27.395Z,22.26
2019-02-05T07:07:27.396Z,22.25
2019-02-05T07:09:20.338Z,22.47
2019-02-05T07:10:20.365Z,22.26
2019-02-05T07:12:13.315Z,22.41
2019-02-05T07:13:13.339Z,22.43
2019-02-05T07:15:06.280Z,22.43
2019-02-05T07:16:06.309Z,22.43
2019-02-05T07:17:59.262Z,22.46
2019-02-05T07:18:59.278Z,22.52
2019-02-05T07:20:52.224Z,22.51
2019-02-05T07:21:52.255Z,22.63
2019-02-05T07:23:45.209Z,22.65
2019-02-05T07:24:45.231Z,22.49
2019-02-05T07:26:38.175Z,22.55
2019-02-05T07:27:38.202Z,22.53
2019-02-05T07:29:31.156Z,22.59
2019-02-05T07:30:31.177Z,22.49
2019-02-05T07:32:24.130Z,22.51
2019-02-05T07:33:24.151Z,22.61
2019-02-05T07:35:17.092Z,22.65
2019-02-05T07:36:17.122Z,22.67
2019-02-05T07:38:10.073Z,22.73
2019-02-05T07:39:10.097Z,22.71
2019-02-05T07:41:03.038Z,22.77
2019-02-05T07:42:03.066Z,22.80
2019-02-05T07:43:56.015Z,22.80
2019-02-05T07:44:56.036Z,22.81
2019-02-05T07:46:48.979Z,22.77
2019-02-05T07:47:49.006Z,22.74
2019-02-05T07:49:41.963Z,22.78
2019-02-05T07:50:41.981Z,22.78
2019-02-05T07:52:34.939Z,22.77
2019-02-05T07:53:34.958Z,22.71
2019-02-05T07:55:27.900Z,22.84
2019-02-05T07:56:27.928Z,22.80
2019-02-05T07:58:20.877Z,22.83
2019-02-05T07:59:20.904Z,22.86
2019-02-05T08:01:14.337Z,22.83
2019-02-05T08:02:14.363Z,22.83
2019-02-05T08:04:07.313Z,22.84
2019-02-05T08:05:07.333Z,22.83
2019-02-05T08:07:00.277Z,22.86
2019-02-05T08:08:00.310Z,22.83
2019-02-05T08:09:53.260Z,22.78
2019-02-05T08:10:53.281Z,22.88
2019-02-05T08:12:46.236Z,22.86
2019-02-05T08:13:46.255Z,22.83
2019-02-05T08:15:39.200Z,22.84
2019-02-05T08:16:39.230Z,22.95
2019-02-05T08:18:32.181Z,22.98
2019-02-05T08:19:32.207Z,22.95
2019-02-05T08:21:25.144Z,22.92
2019-02-05T08:22:25.251Z,22.92
2019-02-05T08:24:18.130Z,22.99
2019-02-05T08:25:18.152Z,22.96
2019-02-05T08:27:11.091Z,23.08
2019-02-05T08:28:11.122Z,22.99
2019-02-05T08:30:04.077Z,22.98
2019-02-05T08:31:04.092Z,22.91
2019-02-05T08:32:57.041Z,22.98
2019-02-05T08:33:57.079Z,22.98
2019-02-05T08:35:50.021Z,23.07
2019-02-05T08:36:50.044Z,22.96
2019-02-05T08:38:42.999Z,22.92
2019-02-05T08:39:43.013Z,23.10
2019-02-05T08:41:35.963Z,23.04
2019-02-05T08:42:35.984Z,23.01
2019-02-05T08:44:28.943Z,23.08
2019-02-05T08:45:28.962Z,23.07
2019-02-05T08:47:21.905Z,22.96
2019-02-05T08:48:21.934Z,23.02
2019-02-05T08:50:14.887Z,23.02
2019-02-05T08:51:14.909Z,23.08
2019-02-05T08:53:07.854Z,23.02
2019-02-05T08:54:07.878Z,23.04
2019-02-05T08:56:01.326Z,23.08
2019-02-05T08:57:01.345Z,23.04
2019-02-05T08:58:54.300Z,23.06
2019-02-05T08:59:54.320Z,23.11
2019-02-05T09:01:47.266Z,23.02
2019-02-05T09:02:47.297Z,23.07
2019-02-05T09:04:40.248Z,23.06
2019-02-05T09:05:40.273Z,23.10
2019-02-05T09:07:33.212Z,23.06
2019-02-05T09:08:33.245Z,23.11
2019-02-05T09:10:26.198Z,23.08
2019-02-05T09:11:26.217Z,23.14
2019-02-05T09:13:19.164Z,23.07
2019-02-05T09:14:19.190Z,23.13
2019-02-05T09:16:12.141Z,23.04
2019-02-05T09:17:12.161Z,23.14
2019-02-05T09:19:05.119Z,23.08
2019-02-05T09:20:05.135Z,23.08
2019-02-05T09:21:58.085Z,23.14
2019-02-05T09:22:58.114Z,23.14
2019-02-05T09:24:51.063Z,23.16
2019-02-05T09:25:51.085Z,23.17
2019-02-05T09:27:44.032Z,23.23
2019-02-05T09:28:44.066Z,23.14
2019-02-05T09:30:37.015Z,23.14
2019-02-05T09:31:37.033Z,23.18
2019-02-05T09:33:29.979Z,23.14
2019-02-05T09:34:30.009Z,23.13
2019-02-05T09:36:22.962Z,23.20
2019-02-05T09:37:22.985Z,23.17
2019-02-05T09:39:15.937Z,23.26
2019-02-05T09:40:15.955Z,23.33
2019-02-05T09:42:08.897Z,23.17
2019-02-05T09:43:08.928Z,23.26
2019-02-05T09:45:01.880Z,23.18
2019-02-05T09:46:01.902Z,23.16
2019-02-05T09:47:54.848Z,23.23
2019-02-05T09:48:54.876Z,23.25
2019-02-05T09:50:47.829Z,23.33
2019-02-05T09:51:47.870Z,23.28
2019-02-05T09:53:40.799Z,23.32
2019-02-05T09:54:40.831Z,23.32
2019-02-05T09:56:33.780Z,23.33
2019-02-05T09:57:33.800Z,23.32
2019-02-05T09:59:26.753Z,23.25
2019-02-05T10:00:26.779Z,23.39
2019-02-05T10:02:19.730Z,23.26
2019-02-05T10:03:19.746Z,23.36
2019-02-05T10:05:12.703Z,23.26
2019-02-05T10:06:12.721Z,23.25
2019-02-05T10:08:05.664Z,23.33
2019-02-05T10:09:05.694Z,23.39
2019-02-05T10:10:58.649Z,23.34
2019-02-05T10:11:58.670Z,23.26
2019-02-05T10:13:51.613Z,23.26
2019-02-05T10:14:51.642Z,23.25
2019-02-05T10:16:44.602Z,23.32
2019-02-05T10:17:44.619Z,23.44
2019-02-05T10:19:37.564Z,23.37
2019-02-05T10:20:37.593Z,23.39
2019-02-05T10:22:30.546Z,23.28
2019-02-05T10:23:30.568Z,23.45
2019-02-05T10:25:23.521Z,23.40
2019-02-05T10:26:23.538Z,23.42
2019-02-05T10:28:16.485Z,23.36
2019-02-05T10:29:16.515Z,23.34
2019-02-05T10:31:09.565Z,23.28
2019-02-05T10:32:09.482Z,23.36
2019-02-05T10:34:02.440Z,23.34
2019-02-05T10:35:02.463Z,23.42
2019-02-05T10:36:55.413Z,23.47
2019-02-05T10:37:55.494Z,23.40
2019-02-05T10:39:48.380Z,23.40
2019-02-05T10:40:48.411Z,23.40
2019-02-05T10:42:44.035Z,23.34
2019-02-05T10:43:41.383Z,23.37
2019-02-05T10:45:34.341Z,23.37
2019-02-05T10:46:34.360Z,23.40
2019-02-05T10:48:27.305Z,23.47
2019-02-05T10:49:27.336Z,23.40
2019-02-05T10:51:20.287Z,23.45
2019-02-05T10:52:20.310Z,23.45
2019-02-05T10:54:13.249Z,23.39
2019-02-05T10:55:13.282Z,23.36
2019-02-05T10:57:06.231Z,23.40
2019-02-05T10:58:06.258Z,23.37
2019-02-05T11:00:08.615Z,23.33
2019-02-05T11:00:59.225Z,23.40
2019-02-05T11:02:53.179Z,23.44
2019-02-05T11:03:53.194Z,23.48
2019-02-05T11:05:46.149Z,23.34
2019-02-05T11:06:46.167Z,23.45
2019-02-05T11:08:39.104Z,23.39
2019-02-05T11:09:39.139Z,23.42
2019-02-05T11:11:32.089Z,23.33
2019-02-05T11:12:32.113Z,23.47
2019-02-05T11:14:25.055Z,23.44
2019-02-05T11:15:25.086Z,23.39
2019-02-05T11:17:18.039Z,23.44
2019-02-05T11:18:18.056Z,23.44
2019-02-05T11:20:11.003Z,23.34
2019-02-05T11:21:11.030Z,23.45
2019-02-05T11:23:03.981Z,23.45
2019-02-05T11:24:04.005Z,23.40
2019-02-05T11:25:56.948Z,23.34
2019-02-05T11:26:56.975Z,23.45
2019-02-05T11:28:49.932Z,23.40
2019-02-05T11:29:49.954Z,23.42
2019-02-05T11:31:42.912Z,23.45
2019-02-05T11:32:42.925Z,23.36
2019-02-05T11:34:35.875Z,23.44
2019-02-05T11:35:35.899Z,23.44
2019-02-05T11:37:28.854Z,23.44
2019-02-05T11:38:28.875Z,23.51
2019-02-05T11:40:21.816Z,23.47
2019-02-05T11:41:21.843Z,23.49
2019-02-05T11:43:15.289Z,23.54
2019-02-05T11:44:15.308Z,23.40
2019-02-05T11:46:08.255Z,23.40
2019-02-05T11:47:08.281Z,23.40
2019-02-05T11:49:01.234Z,23.37
2019-02-05T11:50:01.256Z,23.34
2019-02-05T11:51:54.211Z,23.36
2019-02-05T11:52:54.229Z,23.44
2019-02-05T11:54:47.175Z,23.44
2019-02-05T11:55:47.204Z,23.49
2019-02-05T11:57:40.159Z,23.44
2019-02-05T11:58:40.184Z,23.37
2019-02-05T12:00:33.264Z,23.47
2019-02-05T12:01:38.896Z,23.45
2019-02-05T12:03:26.113Z,23.36
2019-02-05T12:04:26.134Z,23.49
2019-02-05T12:06:19.080Z,23.48
2019-02-05T12:07:19.103Z,23.40
2019-02-05T12:09:12.061Z,23.45
2019-02-05T12:10:12.081Z,23.54
2019-02-05T12:12:05.035Z,23.48
2019-02-05T12:13:05.064Z,23.54
2019-02-05T12:14:57.999Z,23.40
2019-02-05T12:15:58.032Z,23.42
2019-02-05T12:17:51.474Z,23.36
2019-02-05T12:18:51.494Z,23.25
2019-02-05T12:20:44.438Z,23.32
2019-02-05T12:21:44.466Z,23.39
2019-02-05T12:23:37.420Z,23.42
2019-02-05T12:24:37.443Z,23.37
2019-02-05T12:26:30.387Z,23.40
2019-02-05T12:27:30.415Z,23.34
2019-02-05T12:29:23.371Z,23.34
2019-02-05T12:30:23.392Z,23.26
2019-02-05T12:32:16.839Z,23.17
2019-02-05T12:33:16.860Z,23.17
2019-02-05T12:35:09.804Z,23.16
2019-02-05T12:36:09.836Z,23.10
2019-02-05T12:38:03.282Z,23.14
2019-02-05T12:39:03.300Z,23.11
2019-02-05T12:40:56.250Z,23.11
2019-02-05T12:41:56.278Z,23.06
2019-02-05T12:43:49.245Z,23.06
2019-02-05T12:44:49.252Z,23.10
2019-02-05T12:46:42.687Z,23.02
2019-02-05T12:47:42.716Z,23.10
2019-02-05T12:49:35.671Z,23.10
2019-02-05T12:50:35.688Z,23.02
2019-02-05T12:52:29.141Z,23.06
2019-02-05T12:53:29.158Z,23.07
2019-02-05T12:55:22.593Z,22.99
2019-02-05T12:56:22.622Z,23.07
2019-02-05T12:58:15.573Z,23.02
2019-02-05T12:59:15.718Z,23.07
2019-02-05T13:01:08.538Z,23.07
2019-02-05T13:02:08.569Z,23.13
2019-02-05T13:04:01.522Z,23.11
2019-02-05T13:05:01.543Z,23.06
2019-02-05T13:06:54.496Z,23.07
2019-02-05T13:07:54.520Z,23.06
2019-02-05T13:09:47.471Z,23.17
2019-02-05T13:10:47.529Z,23.13
2019-02-05T13:12:40.434Z,23.16
2019-02-05T13:13:40.465Z,23.16
2019-02-05T13:15:33.425Z,23.08
2019-02-05T13:16:33.443Z,23.04
2019-02-05T13:18:26.503Z,23.07
2019-02-05T13:19:26.418Z,23.04
2019-02-05T13:21:19.362Z,23.02
2019-02-05T13:22:19.389Z,23.07
2019-02-05T13:24:12.343Z,23.02
2019-02-05T13:25:12.361Z,23.07
2019-02-05T13:27:05.308Z,23.13
2019-02-05T13:28:05.338Z,23.11
2019-02-05T13:29:58.288Z,23.10
2019-02-05T13:31:07.803Z,23.08
2019-02-05T13:32:51.255Z,23.10
2019-02-05T13:33:51.281Z,23.10
2019-02-05T13:35:44.237Z,23.14
2019-02-05T13:36:44.265Z,23.10
2019-02-05T13:38:37.716Z,23.11
2019-02-05T13:39:37.736Z,23.11
2019-02-05T13:41:30.681Z,23.08
2019-02-05T13:42:30.711Z,23.08
2019-02-05T13:44:23.666Z,23.10
2019-02-05T13:45:23.687Z,23.07
2019-02-05T13:47:16.625Z,23.11
2019-02-05T13:48:16.657Z,23.13
2019-02-05T13:50:09.606Z,23.04
2019-02-05T13:51:09.631Z,23.06
2019-02-05T13:53:02.586Z,23.06
2019-02-05T13:54:02.602Z,23.11
2019-02-05T13:55:55.557Z,23.04
2019-02-05T13:56:55.577Z,23.06
2019-02-05T13:58:48.531Z,22.99
2019-02-05T13:59:48.549Z,23.04
2019-02-05T14:01:44.439Z,23.02
2019-02-05T14:02:41.520Z,23.01
2019-02-05T14:04:34.476Z,23.04
2019-02-05T14:05:34.497Z,23.04
2019-02-05T14:07:27.438Z,23.06
2019-02-05T14:08:27.471Z,23.06
2019-02-05T14:10:20.423Z,23.07
2019-02-05T14:11:20.440Z,23.01
2019-02-05T14:13:13.390Z,23.01
2019-02-05T14:14:13.416Z,23.08
2019-02-05T14:16:06.374Z,23.08
2019-02-05T14:17:06.397Z,22.91
2019-02-05T14:18:59.353Z,22.99
2019-02-05T14:19:59.371Z,23.01
2019-02-05T14:21:52.313Z,22.89
2019-02-05T14:22:52.339Z,22.86
2019-02-05T14:24:45.298Z,22.80
2019-02-05T14:25:45.319Z,22.73
2019-02-05T14:27:38.872Z,22.77
2019-02-05T14:28:38.919Z,22.86
2019-02-05T14:30:31.855Z,22.86
2019-02-05T14:31:31.881Z,22.96
2019-02-05T14:33:24.836Z,22.95
2019-02-05T14:34:24.856Z,22.93
2019-02-05T14:36:17.809Z,22.98
2019-02-05T14:37:17.830Z,22.83
2019-02-05T14:39:10.783Z,22.86
2019-02-05T14:40:10.802Z,22.86
2019-02-05T14:42:03.785Z,22.80
2019-02-05T14:43:03.818Z,22.86
2019-02-05T14:44:56.764Z,22.84
2019-02-05T14:45:56.788Z,22.88
2019-02-05T14:47:49.733Z,22.84
2019-02-05T14:48:49.761Z,22.86
2019-02-05T14:50:42.710Z,22.84
2019-02-05T14:51:42.730Z,22.83
2019-02-05T14:53:35.675Z,22.80
2019-02-05T14:54:35.708Z,22.86
2019-02-05T14:56:28.661Z,22.88
2019-02-05T14:57:28.676Z,22.93
2019-02-05T14:59:21.639Z,22.86
2019-02-05T15:00:21.655Z,22.88
2019-02-05T15:02:14.606Z,22.84
2019-02-05T15:03:14.630Z,22.86
2019-02-05T15:05:07.585Z,22.86
2019-02-05T15:06:07.607Z,22.84
2019-02-05T15:08:00.550Z,22.84
2019-02-05T15:09:00.578Z,22.80
2019-02-05T15:10:53.531Z,22.88
2019-02-05T15:11:53.553Z,22.80
2019-02-05T15:13:46.498Z,22.83
2019-02-05T15:14:46.530Z,22.83
2019-02-05T15:16:39.482Z,22.86
2019-02-05T15:17:39.499Z,22.83
2019-02-05T15:19:32.445Z,22.96
2019-02-05T15:20:32.473Z,22.93
2019-02-05T15:22:25.446Z,22.86
2019-02-05T15:23:25.451Z,22.88
2019-02-05T15:25:18.395Z,22.83
2019-02-05T15:26:18.419Z,22.80
2019-02-05T15:28:11.362Z,22.88
2019-02-05T15:29:11.387Z,22.84
2019-02-05T15:31:04.338Z,22.81
2019-02-05T15:32:04.363Z,22.80
2019-02-05T15:33:57.306Z,22.81
2019-02-05T15:34:57.335Z,22.83
2019-02-05T15:36:50.291Z,22.80
2019-02-05T15:37:50.309Z,22.81
2019-02-05T15:39:43.257Z,22.77
2019-02-05T15:40:43.286Z,22.83
2019-02-05T15:42:36.240Z,22.91
2019-02-05T15:43:36.256Z,22.88
2019-02-05T15:45:29.218Z,22.93
2019-02-05T15:46:29.242Z,22.86
2019-02-05T15:48:22.186Z,22.78
2019-02-05T15:49:22.293Z,22.91
2019-02-05T15:51:15.170Z,22.88
2019-02-05T15:52:15.191Z,22.88
2019-02-05T15:54:08.134Z,22.80
2019-02-05T15:55:08.162Z,22.80
2019-02-05T15:57:01.110Z,22.91
2019-02-05T15:58:01.135Z,22.86
2019-02-05T15:59:54.099Z,22.88
2019-02-05T16:00:54.118Z,22.88
2019-02-05T16:02:47.067Z,22.81
2019-02-05T16:03:47.089Z,22.84
2019-02-05T16:05:40.044Z,22.83
2019-02-05T16:06:40.064Z,22.83
2019-02-05T16:08:33.006Z,22.86
2019-02-05T16:09:33.035Z,22.89
2019-02-05T16:11:25.990Z,22.92
2019-02-05T16:12:26.012Z,22.89
2019-02-05T16:14:18.951Z,22.84
2019-02-05T16:15:18.980Z,22.86
2019-02-05T16:17:11.937Z,22.83
2019-02-05T16:18:11.956Z,22.84
2019-02-05T16:20:04.902Z,22.84
2019-02-05T16:21:04.938Z,22.84
2019-02-05T16:22:57.883Z,22.80
2019-02-05T16:23:58.376Z,22.88
2019-02-05T16:25:50.859Z,22.83
2019-02-05T16:26:50.878Z,22.76
2019-02-05T16:28:43.834Z,22.86
2019-02-05T16:29:43.856Z,22.84
2019-02-05T16:31:36.810Z,22.81
2019-02-05T16:32:36.859Z,22.76
2019-02-05T16:34:29.778Z,22.88
2019-02-05T16:35:29.803Z,22.84
2019-02-05T16:37:22.758Z,22.84
2019-02-05T16:38:22.779Z,22.86
2019-02-05T16:40:15.726Z,22.88
2019-02-05T16:41:15.759Z,22.83
2019-02-05T16:43:08.708Z,22.83
2019-02-05T16:44:08.727Z,22.84
2019-02-05T16:46:01.711Z,22.84
2019-02-05T16:47:01.700Z,22.96
2019-02-05T16:48:54.641Z,23.02
2019-02-05T16:49:54.671Z,23.04
2019-02-05T16:51:47.625Z,22.98
2019-02-05T16:52:47.647Z,22.99
2019-02-05T16:54:40.591Z,23.10
2019-02-05T16:55:40.617Z,23.04
2019-02-05T16:57:33.571Z,23.01
2019-02-05T16:58:33.588Z,22.98
2019-02-05T17:00:27.038Z,23.08
2019-02-05T17:01:27.063Z,23.04
2019-02-05T17:03:20.566Z,23.10
2019-02-05T17:04:20.563Z,22.98
2019-02-05T17:06:14.077Z,23.08
2019-02-05T17:07:14.119Z,23.01
2019-02-05T17:09:07.598Z,23.06
2019-02-05T17:10:07.623Z,23.04
2019-02-05T17:12:00.581Z,23.06
2019-02-05T17:13:00.594Z,23.07
2019-02-05T17:14:53.541Z,23.10
2019-02-05T17:15:53.576Z,23.08
2019-02-05T17:17:46.526Z,22.92
2019-02-05T17:18:46.547Z,22.81
2019-02-05T17:20:39.489Z,22.83
2019-02-05T17:21:39.519Z,22.76
2019-02-05T17:23:33.064Z,22.74
2019-02-05T17:24:33.063Z,22.78
2019-02-05T17:26:27.662Z,22.76
2019-02-05T17:27:27.625Z,22.81
2019-02-05T17:29:21.065Z,22.86
2019-02-05T17:30:21.090Z,22.89
2019-02-05T17:32:14.047Z,22.83
2019-02-05T17:33:14.068Z,22.83
2019-02-05T17:35:07.011Z,22.78
2019-02-05T17:36:07.040Z,22.88
2019-02-05T17:38:00.487Z,22.81
2019-02-05T17:39:00.513Z,22.83
2019-02-05T17:40:54.700Z,22.81
2019-02-05T17:41:53.973Z,22.83
2019-02-05T17:43:50.274Z,22.80
2019-02-05T17:44:47.449Z,22.86
2019-02-05T17:46:40.403Z,22.91
2019-02-05T17:47:40.419Z,22.84
2019-02-05T17:49:33.365Z,22.84
2019-02-05T17:50:33.400Z,22.86
2019-02-05T17:52:26.346Z,22.89
2019-02-05T17:53:26.366Z,22.89
2019-02-05T17:55:19.321Z,22.86
2019-02-05T17:56:19.341Z,22.96
2019-02-05T17:58:12.296Z,22.86
2019-02-05T17:59:12.319Z,22.91
2019-02-05T18:01:05.278Z,22.98
2019-02-05T18:02:05.292Z,22.99
2019-02-05T18:03:58.243Z,22.95
2019-02-05T18:04:58.271Z,22.95
2019-02-05T18:06:51.226Z,22.92
2019-02-05T18:07:51.250Z,22.93
2019-02-05T18:09:44.202Z,23.01
2019-02-05T18:10:44.223Z,23.14
2019-02-05T18:12:37.186Z,23.14
2019-02-05T18:13:37.208Z,23.18
2019-02-05T18:15:30.147Z,23.14
2019-02-05T18:16:30.171Z,23.13
2019-02-05T18:18:23.201Z,23.07
2019-02-05T18:19:23.212Z,23.02
2019-02-05T18:21:16.171Z,22.99
2019-02-05T18:22:16.176Z,23.06
2019-02-05T18:24:09.186Z,22.96
2019-02-05T18:25:09.148Z,23.08
2019-02-05T18:27:02.754Z,23.10
2019-02-05T18:28:02.738Z,23.01
2019-02-05T18:29:55.749Z,22.98
2019-02-05T18:30:55.741Z,23.04
2019-02-05T18:32:48.694Z,23.04
2019-02-05T18:33:48.712Z,22.96